Terminal Aerodrome Forecast
Issued by NWS Duluth, MN

Home | Current Version | Previous Version | Text Only | Print | Product List | Glossary On
Versions: 1 2 3 4 5 6 7 8 9 10 11 12 13 14 15 16 17 18 19 20 21 22 23 24 25 26 27 28 29 30 31 32
000
FTUS43 KDLH 191800 AAC
TAFINL
TAF AMD
KINL 191853Z 1919/2018 20010G15KT 4SM BR VCSH OVC014
      TEMPO 1919/1922 1 1/2SM -TSRA BR BKN008CB OVC014
     FM192200 20008KT P6SM VCSH OVC015
     FM200100 VRB05KT 5SM BR VCTS OVC015CB
      TEMPO 2001/2005 4SM TSRA OVC010CB
     FM200700 28007KT 6SM BR OVC015
     FM201400 28010KT P6SM SCT015=

USA.gov is the U.S. government's official web portal to all federal, state and local government web resources and services.